createdAt,value
2022-11-03T00:00:18.799Z,1022.25
2022-11-03T00:01:19.740Z,1022.25
2022-11-03T00:02:20.789Z,1022.27
2022-11-03T00:03:21.208Z,1022.25
2022-11-03T00:04:22.093Z,1022.22
2022-11-03T00:05:22.974Z,1022.20
2022-11-03T00:06:23.858Z,1022.17
2022-11-03T00:07:24.754Z,1022.16
2022-11-03T00:08:25.657Z,1022.16
2022-11-03T00:09:26.522Z,1022.14
2022-11-03T00:10:27.406Z,1022.15
2022-11-03T00:11:28.299Z,1022.14
2022-11-03T00:12:29.183Z,1022.10
2022-11-03T00:13:30.068Z,1022.09
2022-11-03T00:14:30.951Z,1022.07
2022-11-03T00:15:31.838Z,1022.04
2022-11-03T00:16:32.738Z,1022.03
2022-11-03T00:17:33.612Z,1022.03
2022-11-03T00:18:34.484Z,1022.02
2022-11-03T00:19:35.368Z,1021.99
2022-11-03T00:20:36.245Z,1021.98
2022-11-03T00:21:37.130Z,1022.02
2022-11-03T00:22:38.026Z,1022.01
2022-11-03T00:23:38.952Z,1021.98
2022-11-03T00:24:39.856Z,1021.96
2022-11-03T00:25:40.758Z,1021.95
2022-11-03T00:26:41.633Z,1021.94
2022-11-03T00:27:42.537Z,1021.94
2022-11-03T00:28:43.409Z,1021.90
2022-11-03T00:29:44.324Z,1021.92
2022-11-03T00:30:45.210Z,1021.87
2022-11-03T00:31:46.122Z,1021.86
2022-11-03T00:32:47.013Z,1021.88
2022-11-03T00:33:47.884Z,1021.90
2022-11-03T00:34:48.758Z,1021.86
2022-11-03T00:35:49.641Z,1021.83
2022-11-03T00:36:50.520Z,1021.80
2022-11-03T00:37:51.401Z,1021.78
2022-11-03T00:38:52.295Z,1021.79
2022-11-03T00:39:53.184Z,1021.78
2022-11-03T00:40:54.051Z,1021.77
2022-11-03T00:41:54.942Z,1021.77
2022-11-03T00:42:55.818Z,1021.78
2022-11-03T00:43:56.696Z,1021.75
2022-11-03T00:44:57.605Z,1021.76
2022-11-03T00:45:58.486Z,1021.74
2022-11-03T00:46:59.377Z,1021.72
2022-11-03T00:48:00.270Z,1021.73
2022-11-03T00:49:01.123Z,1021.74
2022-11-03T00:50:02.006Z,1021.77
2022-11-03T00:51:02.875Z,1021.77
2022-11-03T00:52:03.773Z,1021.78
2022-11-03T00:53:04.835Z,1021.78
2022-11-03T00:54:05.321Z,1021.76
2022-11-03T00:55:06.176Z,1021.73
2022-11-03T00:56:07.058Z,1021.73
2022-11-03T00:57:07.946Z,1021.71
2022-11-03T00:58:08.819Z,1021.72
2022-11-03T00:59:09.706Z,1021.71
2022-11-03T01:00:10.583Z,1021.69
2022-11-03T01:01:11.673Z,1021.67
2022-11-03T01:02:12.205Z,1021.65
2022-11-03T01:03:12.656Z,1021.65
2022-11-03T01:04:13.528Z,1021.65
2022-11-03T01:05:14.502Z,1021.63
2022-11-03T01:06:15.434Z,1021.63
2022-11-03T01:07:16.313Z,1021.61
2022-11-03T01:08:17.204Z,1021.60
2022-11-03T01:09:18.098Z,1021.57
2022-11-03T01:10:18.982Z,1021.56
2022-11-03T01:11:19.886Z,1021.56
2022-11-03T01:12:20.871Z,1021.51
2022-11-03T01:13:21.769Z,1021.52
2022-11-03T01:14:22.691Z,1021.52
2022-11-03T01:15:23.575Z,1021.51
2022-11-03T01:16:24.458Z,1021.50
2022-11-03T01:17:25.394Z,1021.48
2022-11-03T01:18:26.280Z,1021.45
2022-11-03T01:19:27.162Z,1021.47
2022-11-03T01:20:28.081Z,1021.47
2022-11-03T01:21:28.976Z,1021.47
2022-11-03T01:22:29.866Z,1021.45
2022-11-03T01:23:30.765Z,1021.43
2022-11-03T01:24:31.674Z,1021.43
2022-11-03T01:25:32.568Z,1021.45
2022-11-03T01:26:33.479Z,1021.43
2022-11-03T01:27:34.362Z,1021.38
2022-11-03T01:28:35.266Z,1021.36
2022-11-03T01:29:36.185Z,1021.35
2022-11-03T01:30:37.068Z,1021.35
2022-11-03T01:31:37.977Z,1021.32
2022-11-03T01:32:38.866Z,1021.34
2022-11-03T01:33:39.773Z,1021.30
2022-11-03T01:34:40.676Z,1021.27
2022-11-03T01:35:41.590Z,1021.29
2022-11-03T01:36:42.492Z,1021.30
2022-11-03T01:37:43.377Z,1021.29
2022-11-03T01:38:44.282Z,1021.29
2022-11-03T01:39:45.226Z,1021.24
2022-11-03T01:40:46.090Z,1021.21
2022-11-03T01:41:47.006Z,1021.21
2022-11-03T01:42:47.923Z,1021.20
2022-11-03T01:43:48.856Z,1021.16
2022-11-03T01:44:49.745Z,1021.16
2022-11-03T01:45:50.611Z,1021.16
2022-11-03T01:46:51.527Z,1021.16
2022-11-03T01:47:52.454Z,1021.17
2022-11-03T01:48:53.304Z,1021.15
2022-11-03T01:49:54.208Z,1021.18
2022-11-03T01:50:55.113Z,1021.20
2022-11-03T01:51:56.058Z,1021.16
2022-11-03T01:52:56.961Z,1021.16
2022-11-03T01:53:57.842Z,1021.15
2022-11-03T01:54:58.764Z,1021.14
2022-11-03T01:55:59.661Z,1021.13
2022-11-03T01:57:00.572Z,1021.13
2022-11-03T01:58:01.454Z,1021.12
2022-11-03T01:59:02.339Z,1021.11
2022-11-03T02:00:03.239Z,1021.10
2022-11-03T02:01:04.265Z,1021.09
2022-11-03T02:02:05.276Z,1021.08
2022-11-03T02:03:06.092Z,1021.09
2022-11-03T02:04:06.650Z,1021.10
2022-11-03T02:05:07.531Z,1021.11
2022-11-03T02:06:08.414Z,1021.14
2022-11-03T02:07:09.309Z,1021.12
2022-11-03T02:08:10.188Z,1021.10
2022-11-03T02:09:11.065Z,1021.11
2022-11-03T02:10:11.954Z,1021.11
2022-11-03T02:11:12.817Z,1021.08
2022-11-03T02:12:13.700Z,1021.07
2022-11-03T02:13:14.582Z,1021.06
2022-11-03T02:14:15.453Z,1021.05
2022-11-03T02:15:16.337Z,1021.03
2022-11-03T02:16:17.207Z,1021.05
2022-11-03T02:17:18.097Z,1021.02
2022-11-03T02:18:18.971Z,1021.01
2022-11-03T02:19:19.859Z,1021.03
2022-11-03T02:20:20.736Z,1020.99
2022-11-03T02:21:21.621Z,1020.99
2022-11-03T02:22:22.499Z,1021.01
2022-11-03T02:23:23.381Z,1020.98
2022-11-03T02:24:24.258Z,1020.98
2022-11-03T02:25:25.152Z,1020.96
2022-11-03T02:26:26.009Z,1020.96
2022-11-03T02:27:26.909Z,1020.96
2022-11-03T02:28:27.806Z,1020.94
2022-11-03T02:29:28.705Z,1020.94
2022-11-03T02:30:29.581Z,1020.93
2022-11-03T02:31:30.492Z,1020.93
2022-11-03T02:32:31.378Z,1020.95
2022-11-03T02:33:32.240Z,1020.96
2022-11-03T02:34:33.112Z,1020.96
2022-11-03T02:35:34.003Z,1020.95
2022-11-03T02:36:34.890Z,1020.96
2022-11-03T02:37:35.769Z,1020.95
2022-11-03T02:38:36.660Z,1020.97
2022-11-03T02:39:37.552Z,1020.96
2022-11-03T02:40:38.457Z,1020.90
2022-11-03T02:41:39.346Z,1020.82
2022-11-03T02:42:40.281Z,1020.79
2022-11-03T02:43:41.161Z,1020.78
2022-11-03T02:44:42.034Z,1020.79
2022-11-03T02:45:42.957Z,1020.80
2022-11-03T02:46:43.851Z,1020.79
2022-11-03T02:47:44.731Z,1020.77
2022-11-03T02:48:45.614Z,1020.76
2022-11-03T02:49:46.596Z,1020.73
2022-11-03T02:50:47.455Z,1020.71
2022-11-03T02:51:48.388Z,1020.70
2022-11-03T02:52:49.286Z,1020.71
2022-11-03T02:53:50.148Z,1020.67
2022-11-03T02:54:51.032Z,1020.63
2022-11-03T02:55:51.934Z,1020.65
2022-11-03T02:56:52.810Z,1020.63
2022-11-03T02:57:53.694Z,1020.63
2022-11-03T02:58:54.576Z,1020.62
2022-11-03T02:59:55.460Z,1020.61
2022-11-03T03:00:56.379Z,1020.62
2022-11-03T03:01:57.351Z,1020.62
2022-11-03T03:02:57.765Z,1020.62
2022-11-03T03:03:58.662Z,1020.57
2022-11-03T03:04:59.563Z,1020.59
2022-11-03T03:06:00.468Z,1020.59
2022-11-03T03:07:01.374Z,1020.57
2022-11-03T03:08:02.286Z,1020.57
2022-11-03T03:09:03.175Z,1020.55
2022-11-03T03:10:04.084Z,1020.56
2022-11-03T03:11:04.967Z,1020.51
2022-11-03T03:12:05.843Z,1020.48
2022-11-03T03:13:07.038Z,1020.46
2022-11-03T03:14:07.557Z,1020.45
2022-11-03T03:15:08.434Z,1020.46
2022-11-03T03:16:09.311Z,1020.42
2022-11-03T03:17:10.202Z,1020.41
2022-11-03T03:18:11.078Z,1020.36
2022-11-03T03:19:11.952Z,1020.34
2022-11-03T03:20:12.831Z,1020.33
2022-11-03T03:21:13.703Z,1020.33
2022-11-03T03:22:14.600Z,1020.33
2022-11-03T03:23:15.886Z,1020.30
2022-11-03T03:24:15.978Z,1020.27
2022-11-03T03:25:16.865Z,1020.27
2022-11-03T03:26:17.768Z,1020.27
2022-11-03T03:27:18.620Z,1020.25
2022-11-03T03:28:19.492Z,1020.21
2022-11-03T03:29:20.385Z,1020.20
2022-11-03T03:30:21.256Z,1020.22
2022-11-03T03:31:22.149Z,1020.18
2022-11-03T03:32:23.030Z,1020.18
2022-11-03T03:33:23.956Z,1020.16
2022-11-03T03:34:34.696Z,1020.16
2022-11-03T03:35:26.554Z,1020.17
2022-11-03T03:36:26.433Z,1020.11
2022-11-03T03:37:27.306Z,1020.14
2022-11-03T03:38:28.178Z,1020.14
2022-11-03T03:39:29.068Z,1020.12
2022-11-03T03:40:29.951Z,1020.16
2022-11-03T03:41:30.863Z,1020.13
2022-11-03T03:42:31.718Z,1020.10
2022-11-03T03:43:32.599Z,1020.08
2022-11-03T03:44:33.473Z,1020.09
2022-11-03T03:45:34.358Z,1020.09
2022-11-03T03:46:35.251Z,1020.08
2022-11-03T03:47:36.138Z,1020.12
2022-11-03T03:48:37.016Z,1020.14
2022-11-03T03:49:37.916Z,1020.16
2022-11-03T03:50:38.789Z,1020.13
2022-11-03T03:51:39.681Z,1020.13
2022-11-03T03:52:40.554Z,1020.12
2022-11-03T03:53:41.447Z,1020.10
2022-11-03T03:54:42.319Z,1020.09
2022-11-03T03:55:43.202Z,1020.10
2022-11-03T03:56:44.102Z,1020.09
2022-11-03T03:57:44.963Z,1020.08
2022-11-03T03:58:45.834Z,1020.04
2022-11-03T03:59:46.715Z,1020.05
2022-11-03T04:00:47.630Z,1019.99
2022-11-03T04:01:48.606Z,1019.95
2022-11-03T04:02:49.011Z,1019.98
2022-11-03T04:03:49.894Z,1019.89
2022-11-03T04:04:50.774Z,1019.93
2022-11-03T04:05:51.654Z,1019.93
2022-11-03T04:06:52.556Z,1019.94
2022-11-03T04:07:53.461Z,1019.93
2022-11-03T04:08:54.337Z,1019.93
2022-11-03T04:09:55.234Z,1019.89
2022-11-03T04:10:56.134Z,1019.90
2022-11-03T04:11:57.053Z,1019.88
2022-11-03T04:12:57.906Z,1019.86
2022-11-03T04:13:58.789Z,1019.86
2022-11-03T04:14:59.658Z,1019.89
2022-11-03T04:16:00.538Z,1019.89
2022-11-03T04:17:01.421Z,1019.89
2022-11-03T04:18:02.313Z,1019.92
2022-11-03T04:19:03.175Z,1019.94
2022-11-03T04:20:04.045Z,1019.93
2022-11-03T04:21:04.914Z,1019.94
2022-11-03T04:22:05.806Z,1019.98
2022-11-03T04:23:06.677Z,1019.93
2022-11-03T04:24:07.560Z,1019.94
2022-11-03T04:25:08.431Z,1019.97
2022-11-03T04:26:09.323Z,1019.94
2022-11-03T04:27:10.215Z,1019.92
2022-11-03T04:28:11.079Z,1019.95
2022-11-03T04:29:11.949Z,1019.91
2022-11-03T04:30:12.831Z,1019.91
2022-11-03T04:31:13.713Z,1019.90
2022-11-03T04:32:14.585Z,1019.86
2022-11-03T04:33:15.462Z,1019.88
2022-11-03T04:34:16.341Z,1019.87
2022-11-03T04:35:17.234Z,1019.88
2022-11-03T04:36:18.105Z,1019.89
2022-11-03T04:37:18.981Z,1019.86
2022-11-03T04:38:19.858Z,1019.84
2022-11-03T04:39:20.747Z,1019.79
2022-11-03T04:40:21.682Z,1019.79
2022-11-03T04:41:22.562Z,1019.79
2022-11-03T04:42:23.472Z,1019.80
2022-11-03T04:43:24.332Z,1019.80
2022-11-03T04:44:25.233Z,1019.81
2022-11-03T04:45:26.101Z,1019.78
2022-11-03T04:46:26.993Z,1019.78
2022-11-03T04:47:27.864Z,1019.80
2022-11-03T04:48:28.743Z,1019.79
2022-11-03T04:49:29.629Z,1019.79
2022-11-03T04:50:30.508Z,1019.78
2022-11-03T04:51:31.405Z,1019.75
2022-11-03T04:52:32.282Z,1019.73
2022-11-03T04:53:33.162Z,1019.71
2022-11-03T04:54:34.038Z,1019.66
2022-11-03T04:55:34.911Z,1019.61
2022-11-03T04:56:35.801Z,1019.58
2022-11-03T04:57:36.694Z,1019.55
2022-11-03T04:58:37.560Z,1019.52
2022-11-03T04:59:38.451Z,1019.51
2022-11-03T05:00:39.396Z,1019.50
2022-11-03T05:01:40.497Z,1019.46
2022-11-03T05:02:40.951Z,1019.45
2022-11-03T05:03:41.824Z,1019.47
2022-11-03T05:04:42.707Z,1019.43
2022-11-03T05:05:43.575Z,1019.41
2022-11-03T05:06:44.457Z,1019.42
2022-11-03T05:07:45.328Z,1019.38
2022-11-03T05:08:46.223Z,1019.36
2022-11-03T05:09:47.098Z,1019.33
2022-11-03T05:10:47.996Z,1019.29
2022-11-03T05:11:48.901Z,1019.29
2022-11-03T05:12:49.805Z,1019.30
2022-11-03T05:13:50.668Z,1019.28
2022-11-03T05:14:55.549Z,1019.30
2022-11-03T05:15:53.309Z,1019.29
2022-11-03T05:16:53.189Z,1019.28
2022-11-03T05:17:54.063Z,1019.25
2022-11-03T05:18:54.958Z,1019.19
2022-11-03T05:19:55.817Z,1019.17
2022-11-03T05:20:56.701Z,1019.23
2022-11-03T05:21:57.585Z,1019.24
2022-11-03T05:22:58.452Z,1019.22
2022-11-03T05:23:59.325Z,1019.17
2022-11-03T05:25:00.196Z,1019.14
2022-11-03T05:26:01.192Z,1019.19
2022-11-03T05:27:02.078Z,1019.19
2022-11-03T05:28:03.084Z,1019.18
2022-11-03T05:29:03.454Z,1019.22
2022-11-03T05:30:04.328Z,1019.13
2022-11-03T05:31:05.220Z,1019.09
2022-11-03T05:32:06.092Z,1019.12
2022-11-03T05:33:06.973Z,1019.04
2022-11-03T05:34:07.847Z,1018.97
2022-11-03T05:35:08.727Z,1018.97
2022-11-03T05:36:09.610Z,1019.00
2022-11-03T05:37:10.436Z,1018.91
2022-11-03T05:38:11.310Z,1018.90
2022-11-03T05:39:12.149Z,1018.90
2022-11-03T05:40:13.024Z,1018.87
2022-11-03T05:41:13.916Z,1018.85
2022-11-03T05:42:14.797Z,1018.85
2022-11-03T05:43:15.703Z,1018.87
2022-11-03T05:44:16.557Z,1018.87
2022-11-03T05:45:17.385Z,1018.83
2022-11-03T05:46:18.230Z,1018.80
2022-11-03T05:47:19.058Z,1018.78
2022-11-03T05:48:19.877Z,1018.82
2022-11-03T05:49:20.707Z,1018.81
2022-11-03T05:50:21.538Z,1018.80
2022-11-03T05:51:22.361Z,1018.77
2022-11-03T05:52:23.180Z,1018.78
2022-11-03T05:53:23.998Z,1018.78
2022-11-03T05:54:24.817Z,1018.75
2022-11-03T05:55:25.646Z,1018.79
2022-11-03T05:56:26.476Z,1018.74
2022-11-03T05:57:27.312Z,1018.74
2022-11-03T05:58:28.150Z,1018.74
2022-11-03T05:59:28.949Z,1018.75
2022-11-03T06:00:29.770Z,1018.71
2022-11-03T06:01:30.676Z,1018.71
2022-11-03T06:02:31.514Z,1018.76
2022-11-03T06:03:32.310Z,1018.75
2022-11-03T06:04:33.131Z,1018.76
2022-11-03T06:05:33.966Z,1018.78
2022-11-03T06:06:34.796Z,1018.71
2022-11-03T06:07:35.624Z,1018.73
2022-11-03T06:08:38.959Z,1018.76
2022-11-03T06:09:38.157Z,1018.70
2022-11-03T06:10:37.975Z,1018.71
2022-11-03T06:11:38.811Z,1018.74
2022-11-03T06:12:39.633Z,1018.72
2022-11-03T06:13:40.477Z,1018.73
2022-11-03T06:14:41.276Z,1018.77
2022-11-03T06:15:42.095Z,1018.72
2022-11-03T06:16:42.926Z,1018.73
2022-11-03T06:17:43.747Z,1018.76
2022-11-03T06:18:44.559Z,1018.74
2022-11-03T06:19:45.388Z,1018.78
2022-11-03T06:20:46.221Z,1018.78
2022-11-03T06:21:47.046Z,1018.71
2022-11-03T06:22:47.877Z,1018.83
2022-11-03T06:23:48.708Z,1018.73
2022-11-03T06:24:49.525Z,1018.75
2022-11-03T06:25:50.341Z,1018.75
2022-11-03T06:26:51.171Z,1018.78
2022-11-03T06:27:51.997Z,1018.79
2022-11-03T06:28:52.832Z,1018.79
2022-11-03T06:29:53.637Z,1018.78
2022-11-03T06:30:54.471Z,1018.79
2022-11-03T06:31:55.299Z,1018.77
2022-11-03T06:32:56.118Z,1018.78
2022-11-03T06:33:56.956Z,1018.73
2022-11-03T06:34:57.765Z,1018.73
2022-11-03T06:35:58.595Z,1018.72
2022-11-03T06:36:59.422Z,1018.73
2022-11-03T06:38:00.266Z,1018.68
2022-11-03T06:39:01.079Z,1018.70
2022-11-03T06:40:01.908Z,1018.72
2022-11-03T06:41:02.758Z,1018.68
2022-11-03T06:42:03.587Z,1018.73
2022-11-03T06:43:04.876Z,1018.72
2022-11-03T06:44:05.336Z,1018.71
2022-11-03T06:45:06.137Z,1018.67
2022-11-03T06:46:06.961Z,1018.65
2022-11-03T06:47:07.781Z,1018.67
2022-11-03T06:48:08.600Z,1018.64
2022-11-03T06:49:09.421Z,1018.70
2022-11-03T06:50:10.246Z,1018.65
2022-11-03T06:51:11.084Z,1018.68
2022-11-03T06:52:11.901Z,1018.68
2022-11-03T06:53:12.721Z,1018.68
2022-11-03T06:54:13.550Z,1018.68
2022-11-03T06:55:16.782Z,1018.66
2022-11-03T06:56:14.928Z,1018.65
2022-11-03T06:57:15.766Z,1018.64
2022-11-03T06:58:16.591Z,1018.60
2022-11-03T06:59:17.493Z,1018.62
2022-11-03T07:00:35.179Z,1018.59
2022-11-03T07:01:20.163Z,1018.60
2022-11-03T07:02:19.674Z,1018.57
2022-11-03T07:03:20.477Z,1018.56
2022-11-03T07:04:21.309Z,1018.64
2022-11-03T07:05:22.128Z,1018.55
2022-11-03T07:06:22.963Z,1018.55
2022-11-03T07:07:23.783Z,1018.58
2022-11-03T07:08:24.610Z,1018.53
2022-11-03T07:09:25.430Z,1018.48
2022-11-03T07:10:26.258Z,1018.55
2022-11-03T07:11:27.090Z,1018.56
2022-11-03T07:12:27.939Z,1018.52
2022-11-03T07:13:28.758Z,1018.56
2022-11-03T07:14:29.606Z,1018.57
2022-11-03T07:15:30.413Z,1018.54
2022-11-03T07:16:31.241Z,1018.53
2022-11-03T07:17:32.060Z,1018.55
2022-11-03T07:18:32.876Z,1018.51
2022-11-03T07:19:33.700Z,1018.46
2022-11-03T07:20:34.524Z,1018.39
2022-11-03T07:21:35.374Z,1018.41
2022-11-03T07:22:36.192Z,1018.37
2022-11-03T07:23:37.022Z,1018.40
2022-11-03T07:24:37.849Z,1018.36
2022-11-03T07:25:38.669Z,1018.37
2022-11-03T07:26:39.496Z,1018.36
2022-11-03T07:27:40.319Z,1018.34
2022-11-03T07:28:41.143Z,1018.31
2022-11-03T07:29:41.982Z,1018.36
2022-11-03T07:30:42.791Z,1018.38
2022-11-03T07:31:43.616Z,1018.33
2022-11-03T07:32:44.446Z,1018.34
2022-11-03T07:33:45.267Z,1018.27
2022-11-03T07:34:46.081Z,1018.18
2022-11-03T07:36:13.756Z,1018.22
2022-11-03T07:36:52.813Z,1018.26
2022-11-03T07:37:49.340Z,1018.23
2022-11-03T07:38:49.171Z,1018.24
2022-11-03T07:39:49.988Z,1018.24
2022-11-03T07:40:50.818Z,1018.22
2022-11-03T07:41:51.645Z,1018.21
2022-11-03T07:42:52.472Z,1018.23
2022-11-03T07:43:53.311Z,1018.19
2022-11-03T07:44:54.141Z,1018.18
2022-11-03T07:45:54.941Z,1018.20
2022-11-03T07:46:55.787Z,1018.19
2022-11-03T07:47:59.274Z,1018.16
2022-11-03T07:48:58.347Z,1018.12
2022-11-03T07:49:58.164Z,1018.15
2022-11-03T07:50:59.007Z,1018.11
2022-11-03T07:51:59.830Z,1018.08
2022-11-03T07:53:00.640Z,1018.07
2022-11-03T07:54:01.459Z,1018.05
2022-11-03T07:55:02.308Z,1018.05
2022-11-03T07:56:03.167Z,1018.08
2022-11-03T07:57:03.955Z,1018.03
2022-11-03T07:58:05.168Z,1018.01
2022-11-03T07:59:05.604Z,1018.02
2022-11-03T08:00:10.072Z,1018.00
2022-11-03T08:01:07.133Z,1017.98
2022-11-03T08:02:08.074Z,1017.90
2022-11-03T08:03:09.336Z,1017.88
2022-11-03T08:04:09.683Z,1017.83
2022-11-03T08:05:10.560Z,1017.79
2022-11-03T08:06:11.802Z,1017.77
2022-11-03T08:07:12.262Z,1017.74
2022-11-03T08:08:13.077Z,1017.74
2022-11-03T08:09:13.897Z,1017.70
2022-11-03T08:10:14.724Z,1017.70
2022-11-03T08:11:15.673Z,1017.68
2022-11-03T08:12:16.472Z,1017.61
2022-11-03T08:13:17.293Z,1017.62
2022-11-03T08:14:18.119Z,1017.59
2022-11-03T08:15:18.963Z,1017.53
2022-11-03T08:16:19.776Z,1017.50
2022-11-03T08:17:20.600Z,1017.47
2022-11-03T08:18:21.424Z,1017.41
2022-11-03T08:19:22.243Z,1017.37
2022-11-03T08:20:23.063Z,1017.37
2022-11-03T08:21:23.891Z,1017.34
2022-11-03T08:22:24.718Z,1017.33
2022-11-03T08:23:26.527Z,1017.30
2022-11-03T08:24:26.057Z,1017.22
2022-11-03T08:25:26.878Z,1017.23
2022-11-03T08:26:27.705Z,1017.26
2022-11-03T08:27:28.527Z,1017.25
2022-11-03T08:28:29.353Z,1017.20
2022-11-03T08:29:30.182Z,1017.15
2022-11-03T08:30:31.021Z,1017.15
2022-11-03T08:31:31.835Z,1017.13
2022-11-03T08:32:32.646Z,1017.02
2022-11-03T08:33:33.466Z,1017.05
2022-11-03T08:34:34.296Z,1017.01
2022-11-03T08:35:35.112Z,1017.01
2022-11-03T08:36:35.941Z,1017.00
2022-11-03T08:37:36.760Z,1016.99
2022-11-03T08:38:37.573Z,1016.98
2022-11-03T08:39:38.403Z,1016.97
2022-11-03T08:40:39.221Z,1016.92
2022-11-03T08:41:40.049Z,1016.97
2022-11-03T08:42:40.868Z,1017.02
2022-11-03T08:43:41.687Z,1016.98
2022-11-03T08:44:42.504Z,1016.93
2022-11-03T08:45:43.355Z,1016.89
2022-11-03T08:46:44.150Z,1016.89
2022-11-03T08:47:44.972Z,1016.85
2022-11-03T08:48:45.798Z,1016.86
2022-11-03T08:49:46.609Z,1016.82
2022-11-03T08:50:47.424Z,1016.82
2022-11-03T08:51:48.255Z,1016.81
2022-11-03T08:52:49.071Z,1016.78
2022-11-03T08:53:49.889Z,1016.79
2022-11-03T08:54:50.776Z,1016.77
2022-11-03T08:55:51.555Z,1016.77
2022-11-03T08:56:52.388Z,1016.75
2022-11-03T08:57:53.206Z,1016.68
2022-11-03T08:58:54.033Z,1016.68
2022-11-03T08:59:54.855Z,1016.65
2022-11-03T09:00:55.763Z,1016.61
2022-11-03T09:01:56.571Z,1016.55
2022-11-03T09:02:57.398Z,1016.54
2022-11-03T09:03:58.363Z,1016.51
2022-11-03T09:04:59.186Z,1016.48
2022-11-03T09:06:00.017Z,1016.48
2022-11-03T09:07:00.844Z,1016.47
2022-11-03T09:10:21.259Z,1016.41
2022-11-03T09:11:04.825Z,1016.39
2022-11-03T09:12:04.647Z,1016.37
2022-11-03T09:13:05.811Z,1016.32
2022-11-03T09:14:06.260Z,1016.33
2022-11-03T09:15:07.079Z,1016.33
2022-11-03T09:16:07.968Z,1016.29
2022-11-03T09:17:08.738Z,1016.24
2022-11-03T09:18:09.907Z,1016.26
2022-11-03T09:19:10.312Z,1016.21
2022-11-03T09:20:11.130Z,1016.18
2022-11-03T09:21:11.968Z,1016.16
2022-11-03T09:22:12.785Z,1016.16
2022-11-03T09:23:13.615Z,1016.16
2022-11-03T09:24:14.434Z,1016.11
2022-11-03T09:25:15.248Z,1016.11
2022-11-03T09:26:16.177Z,1016.12
2022-11-03T09:27:16.983Z,1016.11
2022-11-03T09:28:17.803Z,1016.10
2022-11-03T09:29:18.629Z,1016.07
2022-11-03T09:30:19.454Z,1016.06
2022-11-03T09:31:20.344Z,1016.05
2022-11-03T09:32:23.611Z,1016.08
2022-11-03T09:33:22.039Z,1016.07
2022-11-03T09:34:22.882Z,1016.07
2022-11-03T09:35:23.687Z,1016.05
2022-11-03T09:36:24.514Z,1016.02
2022-11-03T09:37:25.341Z,1016.03
2022-11-03T09:38:26.171Z,1016.02
2022-11-03T09:39:26.997Z,1016.01
2022-11-03T09:40:27.817Z,1015.96
2022-11-03T09:41:53.618Z,1015.97
2022-11-03T09:42:30.370Z,1016.01
2022-11-03T09:43:30.196Z,1016.02
2022-11-03T09:44:31.015Z,1016.03
2022-11-03T09:45:31.833Z,1016.03
2022-11-03T09:46:32.679Z,1016.00
2022-11-03T09:47:33.482Z,1016.00
2022-11-03T09:48:34.303Z,1015.96
2022-11-03T09:49:35.126Z,1015.96
2022-11-03T09:50:35.957Z,1015.96
2022-11-03T09:51:36.794Z,1015.92
2022-11-03T09:52:37.613Z,1015.85
2022-11-03T09:53:38.447Z,1015.82
2022-11-03T09:54:39.284Z,1015.82
2022-11-03T09:55:40.114Z,1015.83
2022-11-03T09:56:40.938Z,1015.82
2022-11-03T09:57:41.766Z,1015.79
2022-11-03T09:58:42.592Z,1015.78
2022-11-03T09:59:43.412Z,1015.78
2022-11-03T10:00:44.307Z,1015.75
2022-11-03T10:01:45.260Z,1015.76
2022-11-03T10:02:46.072Z,1015.74
2022-11-03T10:03:46.887Z,1015.71
2022-11-03T10:04:47.705Z,1015.67
2022-11-03T10:05:48.523Z,1015.62
2022-11-03T10:06:49.352Z,1015.59
2022-11-03T10:07:50.236Z,1015.59
2022-11-03T10:08:51.019Z,1015.54
2022-11-03T10:09:51.846Z,1015.44
2022-11-03T10:10:52.667Z,1015.47
2022-11-03T10:11:53.502Z,1015.47
2022-11-03T10:12:54.323Z,1015.48
2022-11-03T10:13:55.138Z,1015.47
2022-11-03T10:14:55.968Z,1015.46
2022-11-03T10:15:56.796Z,1015.46
2022-11-03T10:16:57.649Z,1015.42
2022-11-03T10:17:58.452Z,1015.41
2022-11-03T10:18:59.288Z,1015.38
2022-11-03T10:20:00.117Z,1015.34
2022-11-03T10:21:00.934Z,1015.32
2022-11-03T10:22:01.771Z,1015.31
2022-11-03T10:23:02.592Z,1015.32
2022-11-03T10:24:03.420Z,1015.30
2022-11-03T10:25:04.243Z,1015.28
2022-11-03T10:26:05.061Z,1015.29
2022-11-03T10:27:05.891Z,1015.27
2022-11-03T10:28:10.388Z,1015.27
2022-11-03T10:29:08.510Z,1015.24
2022-11-03T10:30:08.281Z,1015.27
2022-11-03T10:31:13.260Z,1015.24
2022-11-03T10:32:09.845Z,1015.19
2022-11-03T10:33:10.646Z,1015.17
2022-11-03T10:34:11.465Z,1015.12
2022-11-03T10:35:12.285Z,1015.07
2022-11-03T10:36:13.193Z,1015.08
2022-11-03T10:37:14.048Z,1015.01
2022-11-03T10:38:14.876Z,1015.00
2022-11-03T10:39:15.696Z,1015.02
2022-11-03T10:40:42.059Z,1015.01
2022-11-03T10:41:18.239Z,1014.90
2022-11-03T10:42:18.073Z,1014.89
2022-11-03T10:43:18.892Z,1014.81
2022-11-03T10:44:19.724Z,1014.83
2022-11-03T10:45:20.558Z,1014.78
2022-11-03T10:46:49.544Z,1014.74
2022-11-03T10:47:23.110Z,1014.70
2022-11-03T10:48:22.909Z,1014.68
2022-11-03T10:49:23.729Z,1014.67
2022-11-03T10:50:24.559Z,1014.65
2022-11-03T10:51:25.398Z,1014.65
2022-11-03T10:52:26.309Z,1014.66
2022-11-03T10:54:27.899Z,1014.60
2022-11-03T10:55:28.821Z,1014.59
2022-11-03T10:56:29.657Z,1014.54
2022-11-03T10:57:30.477Z,1014.57
2022-11-03T10:58:31.295Z,1014.52
2022-11-03T10:59:32.254Z,1014.54
2022-11-03T11:00:33.031Z,1014.54
2022-11-03T11:01:34.064Z,1014.53
2022-11-03T11:02:34.648Z,1014.49
2022-11-03T11:03:35.432Z,1014.53
2022-11-03T11:04:36.284Z,1014.53
2022-11-03T11:05:37.099Z,1014.56
2022-11-03T11:06:37.936Z,1014.62
2022-11-03T11:07:38.855Z,1014.57
2022-11-03T11:08:39.734Z,1014.58
2022-11-03T11:09:40.545Z,1014.56
2022-11-03T11:10:41.371Z,1014.53
2022-11-03T11:11:42.199Z,1014.51
2022-11-03T11:12:43.028Z,1014.49
2022-11-03T11:13:43.860Z,1014.53
2022-11-03T11:14:44.687Z,1014.52
2022-11-03T11:15:45.527Z,1014.50
2022-11-03T11:16:46.354Z,1014.47
2022-11-03T11:17:47.295Z,1014.47
2022-11-03T11:18:48.060Z,1014.44
2022-11-03T11:19:48.879Z,1014.43
2022-11-03T11:20:49.704Z,1014.42
2022-11-03T11:21:50.540Z,1014.36
2022-11-03T11:22:51.368Z,1014.35
2022-11-03T11:23:52.188Z,1014.30
2022-11-03T11:24:53.014Z,1014.31
2022-11-03T11:25:53.845Z,1014.32
2022-11-03T11:26:54.682Z,1014.31
2022-11-03T11:27:57.110Z,1014.24
2022-11-03T11:28:56.409Z,1014.21
2022-11-03T11:29:57.209Z,1014.19
2022-11-03T11:30:58.035Z,1014.17
2022-11-03T11:31:58.920Z,1014.16
2022-11-03T11:32:59.765Z,1014.16
2022-11-03T11:34:00.566Z,1014.20
2022-11-03T11:35:01.421Z,1014.23
2022-11-03T11:36:02.242Z,1014.18
2022-11-03T11:37:03.089Z,1014.20
2022-11-03T11:38:03.911Z,1014.19
2022-11-03T11:39:04.730Z,1014.17
2022-11-03T11:40:05.557Z,1014.18
2022-11-03T11:41:06.373Z,1014.15
2022-11-03T11:42:07.273Z,1014.20
2022-11-03T11:43:08.329Z,1014.12
2022-11-03T11:44:08.753Z,1014.19
2022-11-03T11:45:09.580Z,1014.14
2022-11-03T11:46:10.495Z,1014.15
2022-11-03T11:47:11.258Z,1014.11
2022-11-03T11:48:16.083Z,1014.07
2022-11-03T11:49:13.790Z,1014.12
2022-11-03T11:50:13.709Z,1014.10
2022-11-03T11:51:14.474Z,1014.10
2022-11-03T11:52:18.811Z,1014.09
2022-11-03T11:53:16.038Z,1014.09
2022-11-03T11:54:18.166Z,1014.03
2022-11-03T11:55:17.765Z,1014.02
2022-11-03T11:56:18.585Z,1013.98
2022-11-03T11:57:19.425Z,1013.93
2022-11-03T11:58:20.246Z,1013.95
2022-11-03T11:59:24.691Z,1013.95
2022-11-03T12:00:21.732Z,1013.98
2022-11-03T12:01:22.576Z,1013.97
2022-11-03T12:02:23.404Z,1013.95
2022-11-03T12:03:24.309Z,1013.97
2022-11-03T12:04:25.099Z,1013.99
2022-11-03T12:05:25.926Z,1013.95
2022-11-03T12:06:26.754Z,1013.93
2022-11-03T12:07:27.605Z,1013.90
2022-11-03T12:08:28.424Z,1013.96
2022-11-03T12:09:29.271Z,1013.91
2022-11-03T12:10:30.093Z,1013.91
2022-11-03T12:11:30.982Z,1013.89
2022-11-03T12:12:31.769Z,1013.87
2022-11-03T12:13:32.592Z,1013.81
2022-11-03T12:14:33.413Z,1013.79
2022-11-03T12:15:34.233Z,1013.76
2022-11-03T12:16:35.061Z,1013.74
2022-11-03T12:17:35.891Z,1013.72
2022-11-03T12:18:40.767Z,1013.69